createdAt,value
2017-11-15T00:00:37.440Z,0
2017-11-15T00:01:17.922Z,0
2017-11-15T00:01:58.395Z,0
2017-11-15T00:02:38.885Z,0
2017-11-15T00:03:19.361Z,0
2017-11-15T00:03:59.838Z,0
2017-11-15T00:04:40.316Z,0
2017-11-15T00:05:20.804Z,0
2017-11-15T00:06:01.284Z,0
2017-11-15T00:06:41.771Z,0
2017-11-15T00:07:22.244Z,0
2017-11-15T00:08:02.738Z,0
2017-11-15T00:08:43.206Z,0
2017-11-15T00:09:23.738Z,0
2017-11-15T00:10:04.185Z,0
2017-11-15T00:10:44.664Z,0
2017-11-15T00:11:25.151Z,0
2017-11-15T00:12:05.645Z,0
2017-11-15T00:12:46.121Z,0
2017-11-15T00:13:26.605Z,0
2017-11-15T00:14:07.089Z,0
2017-11-15T00:14:47.586Z,0
2017-11-15T00:15:28.069Z,0
2017-11-15T00:16:08.539Z,0
2017-11-15T00:16:49.021Z,0
2017-11-15T00:17:29.515Z,0
2017-11-15T00:18:09.988Z,0
2017-11-15T00:18:50.443Z,0
2017-11-15T00:19:30.923Z,0
2017-11-15T00:20:11.409Z,0
2017-11-15T00:20:51.904Z,0
2017-11-15T00:21:32.384Z,0
2017-11-15T00:22:12.873Z,0
2017-11-15T00:22:53.351Z,0
2017-11-15T00:23:33.847Z,0
2017-11-15T00:24:14.330Z,0
2017-11-15T00:24:54.797Z,0
2017-11-15T00:25:35.283Z,0
2017-11-15T00:26:15.797Z,0
2017-11-15T00:26:56.257Z,0
2017-11-15T00:27:36.741Z,0
2017-11-15T00:28:17.213Z,0
2017-11-15T00:28:57.712Z,0
2017-11-15T00:29:38.193Z,0
2017-11-15T00:30:18.677Z,0
2017-11-15T00:30:59.172Z,0
2017-11-15T00:31:39.659Z,0
2017-11-15T00:32:20.142Z,0
2017-11-15T00:33:00.606Z,0
2017-11-15T00:33:41.101Z,0
2017-11-15T00:34:21.578Z,0
2017-11-15T00:35:02.076Z,0
2017-11-15T00:35:42.550Z,0
2017-11-15T00:36:23.029Z,0
2017-11-15T00:37:03.515Z,0
2017-11-15T00:37:44.037Z,0
2017-11-15T00:38:24.460Z,0
2017-11-15T00:39:04.955Z,0
2017-11-15T00:39:45.469Z,0
2017-11-15T00:40:25.912Z,0
2017-11-15T00:41:06.398Z,0
2017-11-15T00:41:46.891Z,0
2017-11-15T00:42:27.377Z,0
2017-11-15T00:43:07.854Z,0
2017-11-15T00:43:48.339Z,0
2017-11-15T00:44:28.827Z,0
2017-11-15T00:45:09.312Z,0
2017-11-15T00:45:49.804Z,0
2017-11-15T00:46:30.287Z,0
2017-11-15T00:47:10.754Z,0
2017-11-15T00:47:51.231Z,0
2017-11-15T00:48:31.745Z,0
2017-11-15T00:49:12.195Z,0
2017-11-15T00:49:52.660Z,0
2017-11-15T00:50:33.146Z,0
2017-11-15T00:51:13.621Z,0
2017-11-15T00:51:54.111Z,0
2017-11-15T00:52:34.588Z,0
2017-11-15T00:53:15.115Z,0
2017-11-15T00:53:55.561Z,0
2017-11-15T00:54:36.066Z,0
2017-11-15T00:55:16.519Z,0
2017-11-15T00:55:57.003Z,0
2017-11-15T00:56:37.488Z,0
2017-11-15T00:57:17.985Z,0
2017-11-15T00:57:58.465Z,0
2017-11-15T00:58:38.948Z,0
2017-11-15T00:59:19.437Z,0
2017-11-15T00:59:59.915Z,0
2017-11-15T01:00:40.401Z,0
2017-11-15T01:01:20.896Z,0
2017-11-15T01:02:01.392Z,0
2017-11-15T01:02:41.873Z,0
2017-11-15T01:03:22.364Z,0
2017-11-15T01:04:02.834Z,0
2017-11-15T01:04:43.330Z,0
2017-11-15T01:05:23.810Z,0
2017-11-15T01:06:04.309Z,0
2017-11-15T01:06:44.806Z,0
2017-11-15T01:07:25.289Z,0
2017-11-15T01:08:05.771Z,0
2017-11-15T01:08:46.254Z,0
2017-11-15T01:09:26.755Z,0
2017-11-15T01:10:07.228Z,0
2017-11-15T01:10:47.696Z,0
2017-11-15T01:11:28.217Z,0
2017-11-15T01:12:08.687Z,0
2017-11-15T01:12:49.161Z,0
2017-11-15T01:13:29.631Z,0
2017-11-15T01:14:10.120Z,0
2017-11-15T01:14:50.613Z,0
2017-11-15T01:15:31.107Z,0
2017-11-15T01:16:11.574Z,0
2017-11-15T01:16:52.056Z,0
2017-11-15T01:17:32.546Z,0
2017-11-15T01:18:13.050Z,0
2017-11-15T01:18:53.532Z,0
2017-11-15T01:19:34.025Z,0
2017-11-15T01:20:14.499Z,0
2017-11-15T01:20:54.979Z,0
2017-11-15T01:21:35.490Z,0
2017-11-15T01:22:15.967Z,0
2017-11-15T01:22:56.453Z,0
2017-11-15T01:23:36.948Z,0
2017-11-15T01:24:17.438Z,0
2017-11-15T01:24:57.930Z,0
2017-11-15T01:25:38.424Z,0
2017-11-15T01:26:18.906Z,0
2017-11-15T01:26:59.387Z,0
2017-11-15T01:27:39.869Z,0
2017-11-15T01:28:20.359Z,0
2017-11-15T01:29:00.849Z,0
2017-11-15T01:29:41.324Z,0
2017-11-15T01:30:21.805Z,0
2017-11-15T01:31:02.291Z,0
2017-11-15T01:31:42.785Z,0
2017-11-15T01:32:23.284Z,0
2017-11-15T01:33:03.773Z,0
2017-11-15T01:33:44.261Z,0
2017-11-15T01:34:24.746Z,0
2017-11-15T01:35:05.217Z,0
2017-11-15T01:35:45.695Z,0
2017-11-15T01:36:26.187Z,0
2017-11-15T01:37:06.667Z,0
2017-11-15T01:37:47.138Z,0
2017-11-15T01:38:27.618Z,0
2017-11-15T01:39:08.108Z,0
2017-11-15T01:39:48.592Z,0
2017-11-15T01:40:29.075Z,0
2017-11-15T01:41:09.575Z,0
2017-11-15T01:41:50.069Z,0
2017-11-15T01:42:30.550Z,0
2017-11-15T01:43:11.010Z,0
2017-11-15T01:43:51.492Z,0
2017-11-15T01:44:31.989Z,0
2017-11-15T01:45:12.463Z,0
2017-11-15T01:45:52.945Z,0
2017-11-15T01:46:33.431Z,0
2017-11-15T01:47:13.930Z,0
2017-11-15T01:47:54.411Z,0
2017-11-15T01:48:34.892Z,0
2017-11-15T01:49:15.414Z,0
2017-11-15T01:49:55.893Z,0
2017-11-15T01:50:36.379Z,0
2017-11-15T01:51:16.864Z,0
2017-11-15T01:51:57.352Z,0
2017-11-15T01:52:37.835Z,0
2017-11-15T01:53:18.307Z,0
2017-11-15T01:53:58.796Z,0
2017-11-15T01:54:39.283Z,0
2017-11-15T01:55:19.771Z,0
2017-11-15T01:56:00.269Z,0
2017-11-15T01:56:40.762Z,0
2017-11-15T01:57:21.244Z,0
2017-11-15T01:58:01.722Z,0
2017-11-15T01:58:42.206Z,0
2017-11-15T01:59:22.698Z,0
2017-11-15T02:00:03.189Z,0
2017-11-15T02:00:43.656Z,0
2017-11-15T02:01:24.143Z,0
2017-11-15T02:02:04.634Z,0
2017-11-15T02:02:45.116Z,0
2017-11-15T02:03:25.605Z,0
2017-11-15T02:04:06.102Z,0
2017-11-15T02:04:46.593Z,0
2017-11-15T02:05:27.071Z,0
2017-11-15T02:06:07.567Z,0
2017-11-15T02:06:48.049Z,0
2017-11-15T02:07:28.529Z,0
2017-11-15T02:08:09.005Z,0
2017-11-15T02:08:49.490Z,0
2017-11-15T02:09:29.984Z,0
2017-11-15T02:10:10.464Z,0
2017-11-15T02:10:50.955Z,0
2017-11-15T02:11:31.433Z,0
2017-11-15T02:12:11.922Z,0
2017-11-15T02:12:52.401Z,0
2017-11-15T02:13:32.877Z,0
2017-11-15T02:14:13.362Z,0
2017-11-15T02:14:53.854Z,0
2017-11-15T02:15:34.335Z,0
2017-11-15T02:16:14.824Z,0
2017-11-15T02:16:55.305Z,0
2017-11-15T02:17:35.789Z,0
2017-11-15T02:18:16.270Z,0
2017-11-15T02:18:56.754Z,0
2017-11-15T02:19:37.240Z,0
2017-11-15T02:20:17.725Z,0
2017-11-15T02:20:58.209Z,0
2017-11-15T02:21:38.700Z,0
2017-11-15T02:22:19.184Z,0
2017-11-15T02:22:59.667Z,0
2017-11-15T02:23:40.158Z,0
2017-11-15T02:24:20.638Z,0
2017-11-15T02:25:01.136Z,0
2017-11-15T02:25:41.609Z,0
2017-11-15T02:26:22.090Z,0
2017-11-15T02:27:02.583Z,0
2017-11-15T02:27:43.074Z,0
2017-11-15T02:28:23.551Z,0
2017-11-15T02:29:04.047Z,0
2017-11-15T02:29:44.528Z,0
2017-11-15T02:30:25.024Z,0
2017-11-15T02:31:05.505Z,0
2017-11-15T02:31:45.988Z,0
2017-11-15T02:32:26.487Z,0
2017-11-15T02:33:06.962Z,0
2017-11-15T02:33:47.449Z,0
2017-11-15T02:34:27.930Z,0
2017-11-15T02:35:08.419Z,0
2017-11-15T02:35:48.903Z,0
2017-11-15T02:36:29.376Z,0
2017-11-15T02:37:09.862Z,0
2017-11-15T02:37:50.363Z,0
2017-11-15T02:38:30.838Z,0
2017-11-15T02:39:11.308Z,0
2017-11-15T02:39:51.797Z,0
2017-11-15T02:40:32.292Z,0
2017-11-15T02:41:12.756Z,0
2017-11-15T02:41:53.234Z,0
2017-11-15T02:42:33.719Z,0
2017-11-15T02:43:14.204Z,0
2017-11-15T02:43:54.676Z,0
2017-11-15T02:44:35.158Z,0
2017-11-15T02:45:15.646Z,0
2017-11-15T02:45:56.125Z,0
2017-11-15T02:46:36.620Z,0
2017-11-15T02:47:17.097Z,0
2017-11-15T02:47:57.574Z,0
2017-11-15T02:48:38.065Z,0
2017-11-15T02:49:18.558Z,0
2017-11-15T02:49:59.037Z,0
2017-11-15T02:50:39.526Z,0
2017-11-15T02:51:20.020Z,0
2017-11-15T02:52:00.505Z,0
2017-11-15T02:52:41.015Z,0
2017-11-15T02:53:21.509Z,0
2017-11-15T02:54:01.996Z,0
2017-11-15T02:54:42.484Z,0
2017-11-15T02:55:22.976Z,0
2017-11-15T02:56:03.461Z,0
2017-11-15T02:56:43.931Z,0
2017-11-15T02:57:24.419Z,0
2017-11-15T02:58:04.921Z,0
2017-11-15T02:58:45.413Z,0
2017-11-15T02:59:25.908Z,0
2017-11-15T03:00:06.401Z,0
2017-11-15T03:00:46.877Z,0
2017-11-15T03:01:27.352Z,0
2017-11-15T03:02:07.848Z,0
2017-11-15T03:02:48.334Z,0
2017-11-15T03:03:28.813Z,0
2017-11-15T03:04:09.298Z,0
2017-11-15T03:04:49.792Z,0
2017-11-15T03:05:30.271Z,0
2017-11-15T03:06:10.750Z,0
2017-11-15T03:06:51.227Z,0
2017-11-15T03:07:31.708Z,0
2017-11-15T03:08:12.204Z,0
2017-11-15T03:08:52.686Z,0
2017-11-15T03:09:33.173Z,0
2017-11-15T03:10:13.664Z,0
2017-11-15T03:10:54.146Z,0
2017-11-15T03:11:34.625Z,0
2017-11-15T03:12:15.107Z,0
2017-11-15T03:12:55.592Z,0
2017-11-15T03:13:36.071Z,0
2017-11-15T03:14:16.556Z,0
2017-11-15T03:14:57.039Z,0
2017-11-15T03:15:37.518Z,0
2017-11-15T03:16:18.011Z,0
2017-11-15T03:16:59.287Z,0
2017-11-15T03:17:39.769Z,0
2017-11-15T03:18:20.248Z,0
2017-11-15T03:19:00.728Z,0
2017-11-15T03:19:41.216Z,0
2017-11-15T03:20:21.716Z,0
2017-11-15T03:21:02.183Z,0
2017-11-15T03:21:42.672Z,0
2017-11-15T03:22:23.145Z,0
2017-11-15T03:23:03.627Z,0
2017-11-15T03:23:44.103Z,0
2017-11-15T03:24:24.580Z,0
2017-11-15T03:25:05.067Z,0
2017-11-15T03:25:45.552Z,0
2017-11-15T03:26:26.031Z,0
2017-11-15T03:27:06.512Z,0
2017-11-15T03:27:46.992Z,0
2017-11-15T03:28:27.488Z,0
2017-11-15T03:29:07.969Z,0
2017-11-15T03:29:48.466Z,0
2017-11-15T03:30:28.957Z,0
2017-11-15T03:31:10.413Z,0
2017-11-15T03:31:50.901Z,0
2017-11-15T03:32:31.387Z,0
2017-11-15T03:33:11.871Z,0
2017-11-15T03:33:52.366Z,0
2017-11-15T03:34:32.833Z,0
2017-11-15T03:37:00.777Z,0
2017-11-15T03:37:41.230Z,0
2017-11-15T03:38:21.696Z,0
2017-11-15T03:39:02.173Z,0
2017-11-15T03:39:42.660Z,0
2017-11-15T03:40:23.158Z,0
2017-11-15T03:41:03.645Z,0
2017-11-15T03:41:44.356Z,0
2017-11-15T03:42:24.586Z,0
2017-11-15T03:43:05.045Z,0
2017-11-15T03:43:45.505Z,0
2017-11-15T03:44:25.954Z,0
2017-11-15T03:45:06.429Z,0
2017-11-15T03:45:46.899Z,0
2017-11-15T03:46:27.387Z,0
2017-11-15T03:47:07.866Z,0
2017-11-15T03:47:48.350Z,0
2017-11-15T03:48:28.853Z,0
2017-11-15T03:49:09.349Z,0
2017-11-15T03:49:49.809Z,0
2017-11-15T03:50:30.290Z,0
2017-11-15T03:51:10.763Z,0
2017-11-15T03:51:51.238Z,0
2017-11-15T03:52:31.724Z,0
2017-11-15T03:53:12.189Z,0
2017-11-15T03:53:52.651Z,0
2017-11-15T03:54:33.072Z,0
2017-11-15T03:55:13.492Z,0
2017-11-15T03:55:53.946Z,0
2017-11-15T03:56:34.432Z,0
2017-11-15T03:57:14.876Z,0
2017-11-15T03:57:55.361Z,0
2017-11-15T03:58:35.826Z,0
2017-11-15T03:59:16.346Z,0
2017-11-15T03:59:56.814Z,0
2017-11-15T04:00:37.285Z,0
2017-11-15T04:01:17.764Z,0
2017-11-15T04:01:58.210Z,0
2017-11-15T04:02:38.672Z,0
2017-11-15T04:03:19.140Z,0
2017-11-15T04:05:52.127Z,0
2017-11-15T04:06:32.615Z,0
2017-11-15T04:07:13.103Z,0
2017-11-15T04:07:53.577Z,0
2017-11-15T04:08:34.048Z,0
2017-11-15T04:09:14.534Z,0
2017-11-15T04:09:55.019Z,0
2017-11-15T04:10:35.507Z,0
2017-11-15T04:11:15.979Z,0
2017-11-15T04:11:56.454Z,0
2017-11-15T04:12:36.926Z,0
2017-11-15T04:13:17.399Z,0
2017-11-15T04:13:57.896Z,0
2017-11-15T04:14:38.382Z,0
2017-11-15T04:15:18.843Z,0
2017-11-15T04:15:59.318Z,0
2017-11-15T04:16:39.789Z,0
2017-11-15T04:17:20.265Z,0
2017-11-15T04:18:00.760Z,0
2017-11-15T04:18:41.263Z,0
2017-11-15T04:19:21.731Z,0
2017-11-15T04:20:02.232Z,0
2017-11-15T04:20:42.694Z,0
2017-11-15T04:21:23.174Z,0
2017-11-15T04:22:03.634Z,0
2017-11-15T04:22:44.107Z,0
2017-11-15T04:23:24.557Z,0
2017-11-15T04:24:05.035Z,0
2017-11-15T04:24:45.494Z,0
2017-11-15T04:25:25.957Z,0
2017-11-15T04:26:06.412Z,0
2017-11-15T04:26:46.835Z,0
2017-11-15T04:27:27.278Z,0
2017-11-15T04:28:07.706Z,0
2017-11-15T04:28:48.148Z,0
2017-11-15T04:29:28.588Z,0
2017-11-15T04:30:09.066Z,0
2017-11-15T04:30:49.486Z,0
2017-11-15T04:31:29.943Z,0
2017-11-15T04:32:10.419Z,0
2017-11-15T04:32:50.904Z,0
2017-11-15T04:33:31.392Z,0
2017-11-15T04:34:11.869Z,0
2017-11-15T04:34:52.346Z,0
2017-11-15T04:35:32.840Z,0
2017-11-15T04:36:13.326Z,0
2017-11-15T04:36:53.776Z,0
2017-11-15T04:37:34.187Z,0
2017-11-15T04:38:14.649Z,0
2017-11-15T04:38:55.117Z,0
2017-11-15T04:39:35.604Z,0
2017-11-15T04:40:16.077Z,0
2017-11-15T04:40:56.549Z,0
2017-11-15T04:41:37.009Z,0
2017-11-15T04:42:17.427Z,0
2017-11-15T04:42:57.892Z,0
2017-11-15T04:43:38.324Z,0
2017-11-15T04:44:18.766Z,0
2017-11-15T04:44:59.207Z,0
2017-11-15T04:45:39.652Z,0
2017-11-15T04:46:20.101Z,0
2017-11-15T04:47:00.561Z,0
2017-11-15T04:47:41.015Z,0
2017-11-15T04:48:21.486Z,0
2017-11-15T04:49:01.936Z,0
2017-11-15T04:49:42.353Z,0
2017-11-15T04:50:22.791Z,0
2017-11-15T04:51:03.267Z,0
2017-11-15T04:51:43.712Z,0
2017-11-15T04:53:41.300Z,0
2017-11-15T04:54:21.812Z,0
2017-11-15T04:55:02.271Z,0
2017-11-15T04:55:42.767Z,0
2017-11-15T04:56:23.317Z,0
2017-11-15T04:57:03.787Z,0
2017-11-15T04:57:44.254Z,0
2017-11-15T04:58:24.744Z,0
2017-11-15T04:59:05.237Z,0
2017-11-15T04:59:45.692Z,0
2017-11-15T05:00:26.165Z,0
2017-11-15T05:01:06.647Z,0
2017-11-15T05:01:47.127Z,0
2017-11-15T05:02:27.602Z,0
2017-11-15T05:03:08.073Z,0
2017-11-15T05:03:48.552Z,0
2017-11-15T05:04:29.011Z,0
2017-11-15T05:05:09.478Z,0
2017-11-15T05:05:49.939Z,0
2017-11-15T05:06:30.421Z,0
2017-11-15T05:07:10.883Z,0
2017-11-15T05:07:51.355Z,0
2017-11-15T05:08:31.849Z,0
2017-11-15T05:09:12.310Z,0
2017-11-15T05:09:52.770Z,0
2017-11-15T05:10:33.247Z,0
2017-11-15T05:11:13.722Z,0
2017-11-15T05:11:54.192Z,0
2017-11-15T05:12:34.643Z,0
2017-11-15T05:15:07.685Z,0
2017-11-15T05:15:48.152Z,0
2017-11-15T05:16:28.630Z,0
2017-11-15T05:17:09.104Z,0
2017-11-15T05:17:49.600Z,0
2017-11-15T05:18:30.060Z,0
2017-11-15T05:19:10.550Z,0
2017-11-15T05:19:51.050Z,0
2017-11-15T05:20:31.516Z,0
2017-11-15T05:21:12.010Z,0
2017-11-15T05:21:52.526Z,0
2017-11-15T05:22:33.015Z,0
2017-11-15T05:23:13.512Z,0
2017-11-15T05:23:53.991Z,0
2017-11-15T05:24:34.465Z,0
2017-11-15T05:25:14.928Z,0
2017-11-15T05:25:55.389Z,0
2017-11-15T05:26:35.863Z,0
2017-11-15T05:27:16.351Z,0
2017-11-15T05:27:56.839Z,0
2017-11-15T05:28:37.306Z,0
2017-11-15T05:29:17.780Z,0
2017-11-15T05:29:58.251Z,0
2017-11-15T05:30:38.732Z,0
2017-11-15T05:31:19.241Z,0
2017-11-15T05:31:59.817Z,0
2017-11-15T05:32:40.256Z,0
2017-11-15T05:33:20.731Z,0
2017-11-15T05:34:01.216Z,0
2017-11-15T05:34:41.696Z,0
2017-11-15T05:35:22.190Z,0
2017-11-15T05:36:02.670Z,0
2017-11-15T05:36:43.132Z,0
2017-11-15T05:37:23.612Z,0
2017-11-15T05:38:04.062Z,0
2017-11-15T05:38:44.546Z,0
2017-11-15T05:39:25.041Z,0
2017-11-15T05:40:05.528Z,0
2017-11-15T05:40:45.995Z,0
2017-11-15T05:41:26.470Z,0
2017-11-15T05:42:06.980Z,0
2017-11-15T05:42:47.448Z,0
2017-11-15T05:43:27.936Z,0
2017-11-15T05:44:08.430Z,0
2017-11-15T05:44:48.923Z,0
2017-11-15T05:45:29.394Z,0
2017-11-15T05:46:09.880Z,0
2017-11-15T05:46:50.370Z,0
2017-11-15T05:47:30.847Z,0
2017-11-15T05:49:58.859Z,0
2017-11-15T05:50:39.336Z,0
2017-11-15T05:51:19.850Z,0
2017-11-15T05:52:00.330Z,0
2017-11-15T05:52:40.811Z,0
2017-11-15T05:53:21.369Z,0
2017-11-15T05:54:01.788Z,0
2017-11-15T05:54:42.271Z,0
2017-11-15T05:55:22.742Z,0
2017-11-15T05:56:03.223Z,0
2017-11-15T05:56:43.707Z,0
2017-11-15T05:57:24.184Z,0
2017-11-15T05:58:04.692Z,0
2017-11-15T05:58:45.198Z,0
2017-11-15T05:59:25.656Z,0
2017-11-15T06:00:06.118Z,0
2017-11-15T06:00:46.583Z,0
2017-11-15T06:01:27.071Z,0
2017-11-15T06:02:07.532Z,0
2017-11-15T06:02:48.004Z,0
2017-11-15T06:03:28.448Z,4
2017-11-15T06:04:08.875Z,4
2017-11-15T06:04:49.323Z,4
2017-11-15T06:05:29.802Z,0
2017-11-15T06:06:10.269Z,0
2017-11-15T06:06:50.715Z,4
2017-11-15T06:08:48.310Z,4
2017-11-15T06:09:28.895Z,4
2017-11-15T06:10:09.430Z,4
2017-11-15T06:10:49.755Z,4
2017-11-15T06:11:30.329Z,8
2017-11-15T06:12:10.802Z,8
2017-11-15T06:12:51.274Z,8
2017-11-15T06:13:31.647Z,12
2017-11-15T06:14:12.114Z,12
2017-11-15T06:14:52.727Z,12
2017-11-15T06:15:33.102Z,12
2017-11-15T06:16:13.557Z,16
2017-11-15T06:16:54.080Z,16
2017-11-15T06:17:34.477Z,20
2017-11-15T06:18:15.047Z,20
2017-11-15T06:18:55.562Z,24
2017-11-15T06:19:36.054Z,28
2017-11-15T06:20:16.445Z,28
2017-11-15T06:20:56.944Z,36
2017-11-15T06:21:37.445Z,36
2017-11-15T06:22:17.865Z,40
2017-11-15T06:22:58.249Z,44
2017-11-15T06:23:38.797Z,48
2017-11-15T06:24:19.332Z,56
2017-11-15T06:24:59.731Z,60
2017-11-15T06:25:40.201Z,64
2017-11-15T06:26:20.629Z,72
2017-11-15T06:28:53.716Z,96
2017-11-15T06:29:34.096Z,104
2017-11-15T06:30:14.627Z,116
2017-11-15T06:30:55.149Z,120
2017-11-15T06:31:35.579Z,132
2017-11-15T06:32:16.046Z,140
2017-11-15T06:32:56.610Z,152
2017-11-15T06:33:37.071Z,164
2017-11-15T06:34:17.498Z,176
2017-11-15T06:34:57.936Z,184
2017-11-15T06:35:38.561Z,192
2017-11-15T06:36:18.998Z,208
2017-11-15T06:36:59.452Z,220
2017-11-15T06:37:40.006Z,232
2017-11-15T06:38:20.536Z,248
2017-11-15T06:39:01.052Z,260
2017-11-15T06:39:41.581Z,272
2017-11-15T06:40:22.170Z,288
2017-11-15T06:41:02.746Z,304
2017-11-15T06:41:43.314Z,312
2017-11-15T06:42:23.899Z,328
2017-11-15T06:43:04.461Z,344
2017-11-15T06:43:45.003Z,360
2017-11-15T06:44:25.621Z,376
2017-11-15T06:45:06.281Z,396
2017-11-15T06:45:46.881Z,408
2017-11-15T06:46:27.483Z,424
2017-11-15T06:47:08.065Z,440
2017-11-15T06:47:48.695Z,460
2017-11-15T06:48:29.279Z,472
2017-11-15T06:49:09.872Z,492
2017-11-15T06:49:50.521Z,508
2017-11-15T06:50:31.035Z,528
2017-11-15T06:51:11.636Z,548
2017-11-15T06:51:52.196Z,564
2017-11-15T06:52:32.742Z,584
2017-11-15T06:53:13.348Z,604
2017-11-15T06:53:53.967Z,624
2017-11-15T06:54:34.531Z,648
2017-11-15T06:55:15.129Z,668
2017-11-15T06:55:55.796Z,688
2017-11-15T06:56:36.406Z,708
2017-11-15T06:57:17.020Z,728
2017-11-15T06:57:57.690Z,744
2017-11-15T06:58:38.305Z,764
2017-11-15T06:59:18.823Z,784
2017-11-15T06:59:59.379Z,800
2017-11-15T07:00:39.946Z,820
2017-11-15T07:01:20.471Z,836
2017-11-15T07:02:01.139Z,852
2017-11-15T07:02:41.695Z,868
2017-11-15T07:03:22.329Z,892
2017-11-15T07:04:02.841Z,908
2017-11-15T07:04:43.314Z,920
2017-11-15T07:05:23.852Z,944
2017-11-15T07:06:04.414Z,960
2017-11-15T07:06:44.974Z,972
2017-11-15T07:07:25.531Z,980
2017-11-15T07:08:06.131Z,1008
2017-11-15T07:08:46.649Z,1020
2017-11-15T07:09:27.208Z,1036
2017-11-15T07:10:07.784Z,1048
2017-11-15T07:10:48.397Z,1068
2017-11-15T07:11:28.993Z,1084
2017-11-15T07:12:09.538Z,1100
2017-11-15T07:12:50.152Z,1112
2017-11-15T07:13:30.703Z,1124
2017-11-15T07:14:11.315Z,1140
2017-11-15T07:14:51.867Z,1164
2017-11-15T07:15:32.390Z,1172
2017-11-15T07:16:12.950Z,1192
2017-11-15T07:16:53.477Z,1208
2017-11-15T07:17:34.069Z,1220
2017-11-15T07:18:14.572Z,1232
2017-11-15T07:18:55.035Z,1252
2017-11-15T07:19:35.595Z,1268
2017-11-15T07:20:16.166Z,1276
2017-11-15T07:20:56.701Z,1288
2017-11-15T07:21:37.299Z,1304
2017-11-15T07:22:18.566Z,1320
2017-11-15T07:22:59.164Z,1336
2017-11-15T07:23:39.792Z,1352
2017-11-15T07:24:20.449Z,1360
2017-11-15T07:25:00.981Z,1380
2017-11-15T07:25:41.568Z,1392
2017-11-15T07:26:22.141Z,1400
2017-11-15T07:27:02.675Z,1404
2017-11-15T07:27:43.289Z,1412
2017-11-15T07:28:23.859Z,1432
2017-11-15T07:29:04.258Z,1452
2017-11-15T07:29:44.763Z,1476
2017-11-15T07:30:25.225Z,1496
2017-11-15T07:32:37.952Z,1552
2017-11-15T07:33:18.422Z,1564
2017-11-15T07:33:58.901Z,1580
2017-11-15T07:34:39.399Z,1596
2017-11-15T07:35:19.886Z,1608
2017-11-15T07:36:00.410Z,1620
2017-11-15T07:36:40.868Z,1636
2017-11-15T07:37:21.397Z,1648
2017-11-15T07:38:01.899Z,1660
2017-11-15T07:38:42.460Z,1672
2017-11-15T07:39:23.032Z,1684
2017-11-15T07:40:03.571Z,1704
2017-11-15T07:40:44.096Z,1720
2017-11-15T07:43:12.011Z,1780
2017-11-15T07:43:52.507Z,1816
2017-11-15T07:44:33.036Z,1844
2017-11-15T07:45:13.535Z,1900
2017-11-15T07:45:54.004Z,1880
2017-11-15T07:46:34.530Z,1868
2017-11-15T07:47:15.097Z,1896
2017-11-15T07:47:55.560Z,1908
2017-11-15T07:48:36.004Z,1936
2017-11-15T07:49:16.409Z,1948
2017-11-15T07:49:56.843Z,1976
2017-11-15T07:50:37.324Z,1992
2017-11-15T07:51:17.850Z,2024
2017-11-15T07:51:58.390Z,2040
2017-11-15T07:52:38.795Z,2048
2017-11-15T07:53:19.251Z,2088
2017-11-15T07:53:59.757Z,2124
2017-11-15T07:54:40.181Z,2152
2017-11-15T07:55:20.619Z,2132
2017-11-15T07:56:01.118Z,2144
2017-11-15T07:56:41.600Z,2168
2017-11-15T07:57:22.091Z,2180
2017-11-15T07:58:02.484Z,2176
2017-11-15T07:58:42.943Z,2204
2017-11-15T07:59:23.365Z,2220
2017-11-15T08:00:03.836Z,2208
2017-11-15T08:00:44.297Z,2212
2017-11-15T08:03:02.120Z,2268
2017-11-15T08:03:42.596Z,2312
2017-11-15T08:04:23.048Z,2292
2017-11-15T08:05:03.511Z,2324
2017-11-15T08:05:44.010Z,2332
2017-11-15T08:06:24.550Z,2364
2017-11-15T08:07:05.130Z,2352
2017-11-15T08:07:45.662Z,2388
2017-11-15T08:08:26.291Z,2396
2017-11-15T08:09:06.880Z,2388
2017-11-15T08:09:47.567Z,2396
2017-11-15T08:10:28.099Z,2412
2017-11-15T08:11:08.666Z,2424
2017-11-15T08:11:49.289Z,2436
2017-11-15T08:12:29.921Z,2456
2017-11-15T08:13:10.486Z,2464
2017-11-15T08:13:51.033Z,2476
2017-11-15T08:14:32.327Z,2484
2017-11-15T08:15:14.231Z,2508
2017-11-15T08:17:32.780Z,2524
2017-11-15T08:18:13.325Z,2552
2017-11-15T08:18:53.818Z,2552
2017-11-15T08:19:34.363Z,2572
2017-11-15T08:20:14.853Z,2632
2017-11-15T08:20:55.413Z,2576
2017-11-15T08:21:35.853Z,2600
2017-11-15T08:22:16.355Z,2644
2017-11-15T08:22:56.821Z,2656
2017-11-15T08:23:37.347Z,2644
2017-11-15T08:24:17.886Z,2660
2017-11-15T08:24:58.474Z,2688
2017-11-15T08:25:39.116Z,2680
2017-11-15T08:26:19.739Z,2700
2017-11-15T08:27:00.279Z,2688
2017-11-15T08:27:40.910Z,2716
2017-11-15T08:28:21.444Z,2728
2017-11-15T08:29:02.014Z,2748
2017-11-15T08:29:42.611Z,2752
2017-11-15T08:30:23.118Z,2792
2017-11-15T08:31:03.574Z,2764
2017-11-15T08:31:44.107Z,2740
2017-11-15T08:32:24.597Z,2748
2017-11-15T08:33:05.184Z,2780
2017-11-15T08:33:45.698Z,2776
2017-11-15T08:34:26.151Z,2844
2017-11-15T08:35:06.632Z,2872
2017-11-15T08:35:47.201Z,2888
2017-11-15T08:36:27.700Z,2860
2017-11-15T08:37:08.321Z,2924
2017-11-15T08:37:48.781Z,2884
2017-11-15T08:38:29.397Z,2888
2017-11-15T08:40:27.183Z,2980
2017-11-15T08:41:07.645Z,2904
2017-11-15T08:41:48.132Z,2928
2017-11-15T08:42:28.684Z,2980
2017-11-15T08:43:09.226Z,2948
2017-11-15T08:43:49.754Z,2944
2017-11-15T08:44:30.288Z,2952
2017-11-15T08:45:10.892Z,2980
2017-11-15T08:45:51.441Z,3004
2017-11-15T08:46:31.987Z,3016
2017-11-15T08:47:12.505Z,3044
2017-11-15T08:47:53.013Z,3068
2017-11-15T08:48:33.634Z,3084
2017-11-15T08:49:14.184Z,3092
2017-11-15T08:49:54.747Z,3088
2017-11-15T08:50:35.398Z,3088
2017-11-15T08:51:15.898Z,3100
2017-11-15T08:51:56.390Z,3108
2017-11-15T08:52:36.823Z,3120
2017-11-15T08:53:17.377Z,3128
2017-11-15T08:53:57.974Z,3128
2017-11-15T08:54:38.491Z,3128
2017-11-15T08:55:19.866Z,3124
2017-11-15T08:57:37.768Z,3088
2017-11-15T08:58:18.203Z,3140
2017-11-15T08:58:58.715Z,3168
2017-11-15T08:59:39.225Z,3176
2017-11-15T09:00:19.786Z,3180
2017-11-15T09:01:00.241Z,3180
2017-11-15T09:01:40.782Z,3180
2017-11-15T09:02:21.310Z,3188
2017-11-15T09:03:01.900Z,3200
2017-11-15T09:03:42.430Z,3204
2017-11-15T09:04:23.025Z,3208
2017-11-15T09:05:03.576Z,3216
2017-11-15T09:05:44.164Z,3224
2017-11-15T09:06:24.803Z,3228
2017-11-15T09:07:05.413Z,3236
2017-11-15T09:07:46.701Z,3248
2017-11-15T09:08:27.256Z,3268
2017-11-15T09:09:07.754Z,3280
2017-11-15T09:09:48.354Z,3284
2017-11-15T09:10:28.989Z,3292
2017-11-15T09:11:09.552Z,3304
2017-11-15T09:11:50.166Z,3304
2017-11-15T09:12:30.799Z,3308
2017-11-15T09:13:12.202Z,3312
2017-11-15T09:13:52.849Z,3320
2017-11-15T09:14:33.463Z,3324
2017-11-15T09:15:14.129Z,3336
2017-11-15T09:15:54.783Z,3348
2017-11-15T09:16:35.471Z,3364
2017-11-15T09:17:16.019Z,3376
2017-11-15T09:19:33.981Z,3376
2017-11-15T09:20:14.544Z,3396
2017-11-15T09:20:55.495Z,3416
2017-11-15T09:21:36.507Z,3436
2017-11-15T09:22:17.701Z,3476
2017-11-15T09:22:58.473Z,3488
2017-11-15T09:23:39.030Z,3516
2017-11-15T09:24:19.683Z,3544
2017-11-15T09:25:00.258Z,3564
2017-11-15T09:25:41.622Z,3600
2017-11-15T09:26:22.232Z,3592
2017-11-15T09:27:02.754Z,3584
2017-11-15T09:27:43.351Z,3564
2017-11-15T09:28:23.853Z,3656
2017-11-15T09:29:04.399Z,3616
2017-11-15T09:29:44.979Z,3624
2017-11-15T09:30:25.600Z,3680
2017-11-15T09:31:06.147Z,3632
2017-11-15T09:31:46.643Z,3676
2017-11-15T09:32:27.120Z,3636
2017-11-15T09:33:07.739Z,3672
2017-11-15T09:33:48.177Z,3764
2017-11-15T09:34:28.700Z,3660
2017-11-15T09:35:09.217Z,3704
2017-11-15T09:35:49.722Z,3732
2017-11-15T09:36:30.176Z,3788
2017-11-15T09:37:10.803Z,3792
2017-11-15T09:37:51.290Z,3808
2017-11-15T09:38:31.770Z,3812
2017-11-15T09:39:12.404Z,3816
2017-11-15T09:39:53.644Z,3772
2017-11-15T09:42:06.412Z,3712
2017-11-15T09:42:47.011Z,3808
2017-11-15T09:43:27.606Z,3756
2017-11-15T09:44:08.151Z,3832
2017-11-15T09:44:48.703Z,3776
2017-11-15T09:45:29.221Z,3844
2017-11-15T09:46:09.724Z,3820
2017-11-15T09:46:50.294Z,3852
2017-11-15T09:47:30.814Z,3916
2017-11-15T09:48:11.348Z,3840
2017-11-15T09:48:51.867Z,3876
2017-11-15T09:49:33.057Z,3904
2017-11-15T09:50:14.056Z,3908
2017-11-15T09:50:54.518Z,3904
2017-11-15T09:51:35.265Z,3844
2017-11-15T09:52:15.821Z,3852
2017-11-15T09:52:56.309Z,3836
2017-11-15T09:53:36.837Z,3852
2017-11-15T09:54:17.252Z,3852
2017-11-15T09:54:57.775Z,3876
2017-11-15T09:55:38.211Z,3848
2017-11-15T09:56:18.722Z,3868
2017-11-15T09:56:59.230Z,3840
2017-11-15T09:57:39.721Z,3860
2017-11-15T09:58:20.328Z,3844
2017-11-15T09:59:01.052Z,3852
2017-11-15T09:59:41.575Z,3848
2017-11-15T10:00:22.150Z,3840
2017-11-15T10:01:02.702Z,3840
2017-11-15T10:01:43.202Z,3836
2017-11-15T10:02:23.705Z,3836